Airport View

Enter AWOS ICAO identifier for current METAR.

ex. KFNL

K4BM 261830Z AUTO 01004G19KT 10SM CLR M06/M22 A3021 RMK AO2

26 Feb 2020 18:52

Frequency: 132.3

Phone: 303-512-4418

Other Area AWOS: KAEJ - KAFF - K7BM - KLXV

TAF KCOS 261732Z 2618/2718 17008KT P6SM SCT180 FM270100 34008KT P6SM FEW190 FM271600 VRB06KT P6SM FEW250